createdAt,value
2019-03-09T00:00:36.842Z,5.61
2019-03-09T00:03:07.970Z,5.63
2019-03-09T00:05:38.155Z,5.64
2019-03-09T00:08:08.625Z,5.60
2019-03-09T00:10:38.873Z,5.57
2019-03-09T00:13:09.637Z,5.52
2019-03-09T00:15:39.961Z,5.48
2019-03-09T00:18:10.698Z,5.47
2019-03-09T00:20:41.253Z,5.48
2019-03-09T00:23:18.513Z,5.48
2019-03-09T00:26:08.683Z,5.57
2019-03-09T00:28:47.276Z,5.56
2019-03-09T00:31:36.421Z,5.56
2019-03-09T00:34:06.994Z,5.59
2019-03-09T00:36:37.535Z,5.58
2019-03-09T00:39:07.982Z,5.56
2019-03-09T00:41:38.214Z,5.57
2019-03-09T00:44:08.389Z,5.59
2019-03-09T00:46:38.577Z,5.56
2019-03-09T00:49:11.122Z,5.58
2019-03-09T00:51:40.860Z,5.58
2019-03-09T00:54:11.081Z,5.59
2019-03-09T00:56:41.617Z,5.61
2019-03-09T00:59:12.160Z,5.61
2019-03-09T01:01:42.940Z,5.65
2019-03-09T01:04:14.482Z,5.70
2019-03-09T01:06:44.852Z,5.72
2019-03-09T01:09:15.793Z,5.71
2019-03-09T01:11:46.017Z,5.74
2019-03-09T01:14:16.361Z,5.77
2019-03-09T01:16:46.816Z,5.79
2019-03-09T01:19:17.375Z,5.82
2019-03-09T01:21:47.848Z,5.86
2019-03-09T01:24:18.300Z,5.91
2019-03-09T01:26:48.905Z,5.98
2019-03-09T01:29:19.558Z,6.03
2019-03-09T01:31:49.803Z,6.06
2019-03-09T01:34:20.634Z,6.12
2019-03-09T01:36:51.123Z,6.19
2019-03-09T01:39:21.635Z,6.20
2019-03-09T01:41:52.479Z,6.25
2019-03-09T01:44:22.922Z,6.19
2019-03-09T01:46:53.162Z,6.05
2019-03-09T01:49:23.732Z,5.86
2019-03-09T01:51:53.958Z,5.88
2019-03-09T01:54:24.690Z,5.87
2019-03-09T01:56:55.171Z,5.83
2019-03-09T01:59:25.406Z,5.78
2019-03-09T02:01:55.932Z,5.75
2019-03-09T02:04:26.203Z,5.70
2019-03-09T02:06:56.651Z,5.67
2019-03-09T02:09:27.243Z,5.67
2019-03-09T02:11:58.573Z,5.65
2019-03-09T02:14:29.391Z,5.63
2019-03-09T02:16:59.612Z,5.61
2019-03-09T02:19:30.656Z,5.59
2019-03-09T02:22:01.155Z,5.59
2019-03-09T02:24:32.002Z,5.59
2019-03-09T02:27:02.346Z,5.57
2019-03-09T02:29:32.639Z,5.54
2019-03-09T02:32:02.872Z,5.53
2019-03-09T02:34:33.536Z,5.53
2019-03-09T02:37:03.859Z,5.52
2019-03-09T02:39:42.041Z,5.51
2019-03-09T02:42:13.057Z,5.52
2019-03-09T02:44:43.330Z,5.50
2019-03-09T02:47:13.662Z,5.53
2019-03-09T02:49:44.262Z,5.56
2019-03-09T02:52:14.547Z,5.56
2019-03-09T02:54:45.271Z,5.56
2019-03-09T02:57:15.503Z,5.56
2019-03-09T02:59:45.655Z,5.58
2019-03-09T03:02:49.715Z,5.56
2019-03-09T03:05:19.896Z,5.51
2019-03-09T03:07:50.043Z,5.48
2019-03-09T03:10:20.753Z,5.49
2019-03-09T03:12:50.988Z,5.53
2019-03-09T03:15:32.057Z,5.53
2019-03-09T03:18:02.249Z,5.53
2019-03-09T03:20:32.819Z,5.55
2019-03-09T03:23:03.659Z,5.58
2019-03-09T03:25:33.821Z,5.53
2019-03-09T03:28:04.006Z,5.54
2019-03-09T03:30:34.489Z,5.57
2019-03-09T03:33:05.189Z,5.54
2019-03-09T03:35:35.652Z,5.54
2019-03-09T03:38:06.026Z,5.49
2019-03-09T03:40:36.760Z,5.48
2019-03-09T03:43:06.989Z,5.46
2019-03-09T03:45:38.492Z,5.45
2019-03-09T03:48:08.665Z,5.48
2019-03-09T03:50:38.854Z,5.47
2019-03-09T03:53:09.066Z,5.49
2019-03-09T03:55:39.429Z,5.50
2019-03-09T03:58:09.960Z,5.50
2019-03-09T04:00:40.578Z,5.50
2019-03-09T04:03:11.254Z,5.46
2019-03-09T04:05:41.440Z,5.47
2019-03-09T04:08:12.259Z,5.46
2019-03-09T04:10:42.522Z,5.42
2019-03-09T04:13:13.316Z,5.40
2019-03-09T04:15:44.196Z,5.38
2019-03-09T04:18:14.949Z,5.38
2019-03-09T04:20:45.783Z,5.37
2019-03-09T04:23:16.070Z,5.38
2019-03-09T04:25:46.286Z,5.39
2019-03-09T04:28:16.742Z,5.40
2019-03-09T04:30:47.716Z,5.42
2019-03-09T04:33:17.935Z,5.45
2019-03-09T04:35:48.313Z,5.47
2019-03-09T04:38:18.652Z,5.49
2019-03-09T04:40:49.205Z,5.53
2019-03-09T04:43:19.826Z,5.55
2019-03-09T04:45:50.493Z,5.57
2019-03-09T04:48:20.881Z,5.62
2019-03-09T04:50:51.133Z,5.61
2019-03-09T04:53:21.744Z,5.65
2019-03-09T04:55:52.111Z,5.67
2019-03-09T04:58:22.257Z,5.71
2019-03-09T05:00:53.110Z,5.72
2019-03-09T05:03:23.688Z,5.73
2019-03-09T05:05:54.049Z,5.75
2019-03-09T05:08:49.017Z,5.77
2019-03-09T05:11:23.117Z,5.84
2019-03-09T05:14:12.712Z,5.86
2019-03-09T05:16:43.499Z,5.89
2019-03-09T05:19:13.716Z,5.96
2019-03-09T05:21:43.948Z,5.98
2019-03-09T05:24:14.450Z,6.04
2019-03-09T05:26:45.083Z,6.10
2019-03-09T05:29:15.725Z,6.15
2019-03-09T05:31:45.961Z,6.17
2019-03-09T05:34:16.249Z,6.18
2019-03-09T05:36:46.726Z,6.20
2019-03-09T05:39:17.549Z,6.16
2019-03-09T05:41:48.177Z,6.19
2019-03-09T05:44:18.693Z,6.21
2019-03-09T05:46:48.917Z,6.26
2019-03-09T05:49:19.220Z,6.28
2019-03-09T05:52:25.367Z,6.31
2019-03-09T05:54:56.625Z,6.36
2019-03-09T05:57:26.809Z,6.41
2019-03-09T05:59:56.987Z,6.44
2019-03-09T06:02:27.649Z,6.47
2019-03-09T06:04:57.886Z,6.50
2019-03-09T06:07:28.088Z,6.52
2019-03-09T06:09:58.667Z,6.54
2019-03-09T06:12:28.824Z,6.55
2019-03-09T06:14:59.265Z,6.58
2019-03-09T06:17:29.607Z,6.59
2019-03-09T06:20:00.090Z,6.61
2019-03-09T06:22:30.543Z,6.63
2019-03-09T06:25:00.820Z,6.64
2019-03-09T06:27:30.992Z,6.64
2019-03-09T06:30:01.177Z,6.64
2019-03-09T06:33:07.122Z,6.65
2019-03-09T06:35:37.391Z,6.66
2019-03-09T06:38:32.494Z,6.65
2019-03-09T06:41:03.356Z,6.65
2019-03-09T06:43:34.174Z,6.65
2019-03-09T06:46:07.403Z,6.62
2019-03-09T06:48:38.312Z,6.64
2019-03-09T06:51:08.834Z,6.65
2019-03-09T06:53:40.289Z,6.64
2019-03-09T06:56:10.508Z,6.62
2019-03-09T06:58:41.033Z,6.63
2019-03-09T07:01:21.047Z,6.65
2019-03-09T07:03:51.239Z,6.63
2019-03-09T07:06:23.021Z,6.57
2019-03-09T07:08:53.773Z,6.52
2019-03-09T07:11:24.328Z,6.52
2019-03-09T07:13:56.394Z,6.53
2019-03-09T07:16:29.176Z,6.51
2019-03-09T07:19:00.608Z,6.56
2019-03-09T07:21:33.220Z,6.59
2019-03-09T07:24:05.202Z,6.59
2019-03-09T07:26:37.539Z,6.61
2019-03-09T07:29:09.974Z,6.62
2019-03-09T07:31:41.299Z,6.67
2019-03-09T07:34:25.331Z,6.69
2019-03-09T07:36:57.335Z,6.73
2019-03-09T07:39:29.914Z,6.74
2019-03-09T07:42:02.449Z,6.78
2019-03-09T07:44:34.480Z,6.83
2019-03-09T07:47:07.271Z,6.92
2019-03-09T07:49:39.452Z,6.98
2019-03-09T07:52:36.661Z,7.03
2019-03-09T07:55:10.703Z,7.09
2019-03-09T07:57:43.280Z,7.14
2019-03-09T08:00:20.260Z,7.21
2019-03-09T08:02:52.529Z,7.23
2019-03-09T08:05:25.480Z,7.28
2019-03-09T08:07:57.066Z,7.32
2019-03-09T08:10:29.256Z,7.35
2019-03-09T08:13:01.815Z,7.41
2019-03-09T08:15:34.038Z,7.41
2019-03-09T08:18:07.215Z,7.45
2019-03-09T08:20:39.173Z,7.51
2019-03-09T08:23:10.820Z,7.62
2019-03-09T08:25:44.039Z,7.72
2019-03-09T08:28:16.660Z,7.70
2019-03-09T08:30:50.201Z,7.79
2019-03-09T08:33:21.640Z,7.83
2019-03-09T08:35:53.785Z,7.88
2019-03-09T08:38:27.088Z,7.99
2019-03-09T08:40:59.770Z,8.15
2019-03-09T08:43:32.144Z,8.29
2019-03-09T08:46:05.625Z,8.28
2019-03-09T08:48:37.112Z,8.41
2019-03-09T08:51:09.021Z,8.32
2019-03-09T08:53:41.021Z,8.20
2019-03-09T08:56:11.488Z,8.07
2019-03-09T08:58:42.013Z,8.10
2019-03-09T09:01:12.196Z,8.11
2019-03-09T09:03:42.716Z,8.14
2019-03-09T09:06:12.970Z,8.14
2019-03-09T09:08:43.702Z,8.11
2019-03-09T09:11:14.363Z,8.17
2019-03-09T09:13:44.669Z,8.07
2019-03-09T09:16:15.526Z,8.05
2019-03-09T09:18:46.015Z,8.05
2019-03-09T09:21:17.113Z,8.02
2019-03-09T09:23:47.642Z,8.01
2019-03-09T09:26:17.928Z,8.02
2019-03-09T09:28:48.560Z,8.03
2019-03-09T09:31:19.199Z,8.06
2019-03-09T09:33:49.393Z,8.03
2019-03-09T09:36:20.140Z,7.98
2019-03-09T09:38:50.356Z,7.95
2019-03-09T09:41:21.711Z,7.92
2019-03-09T09:43:52.316Z,7.99
2019-03-09T09:46:22.585Z,8.09
2019-03-09T09:48:52.810Z,8.08
2019-03-09T09:51:27.453Z,8.04
2019-03-09T09:53:58.415Z,7.98
2019-03-09T09:56:28.929Z,7.74
2019-03-09T09:58:59.643Z,7.45
2019-03-09T10:01:33.869Z,7.26
2019-03-09T10:04:05.086Z,7.17
2019-03-09T10:06:37.648Z,7.22
2019-03-09T10:09:08.533Z,7.38
2019-03-09T10:11:39.129Z,7.51
2019-03-09T10:14:12.923Z,7.72
2019-03-09T10:16:44.798Z,7.93
2019-03-09T10:19:15.823Z,7.98
2019-03-09T10:21:46.702Z,7.74
2019-03-09T10:24:17.454Z,7.47
2019-03-09T10:26:52.032Z,7.44
2019-03-09T10:29:23.213Z,7.86
2019-03-09T10:31:54.030Z,8.24
2019-03-09T10:34:24.396Z,8.36
2019-03-09T10:36:55.281Z,8.13
2019-03-09T10:39:26.194Z,7.74
2019-03-09T10:41:57.241Z,7.51
2019-03-09T10:44:27.890Z,7.41
2019-03-09T10:46:58.994Z,7.49
2019-03-09T10:49:29.624Z,7.62
2019-03-09T10:51:59.893Z,7.72
2019-03-09T10:54:35.927Z,7.87
2019-03-09T10:57:02.194Z,8.15
2019-03-09T10:59:36.206Z,8.63
2019-03-09T11:02:07.209Z,9.21
2019-03-09T11:04:38.831Z,8.89
2019-03-09T11:07:09.396Z,8.67
2019-03-09T11:09:40.909Z,8.51
2019-03-09T11:12:11.609Z,8.90
2019-03-09T11:14:44.623Z,9.52
2019-03-09T11:17:16.714Z,9.40
2019-03-09T11:19:46.880Z,9.13
2019-03-09T11:22:17.100Z,9.29
2019-03-09T11:24:50.887Z,9.37
2019-03-09T11:27:21.338Z,9.39
2019-03-09T11:29:51.552Z,9.42
2019-03-09T11:32:21.787Z,9.32
2019-03-09T11:34:51.999Z,9.08
2019-03-09T11:37:22.542Z,8.88
2019-03-09T11:39:55.516Z,8.92
2019-03-09T11:42:25.770Z,9.28
2019-03-09T11:44:56.266Z,9.43
2019-03-09T11:47:26.583Z,9.24
2019-03-09T11:49:56.874Z,8.99
2019-03-09T11:52:29.070Z,8.82
2019-03-09T11:54:58.999Z,8.77
2019-03-09T11:57:29.422Z,8.79
2019-03-09T12:00:00.422Z,8.72
2019-03-09T12:02:38.523Z,8.65
2019-03-09T12:05:02.565Z,8.56
2019-03-09T12:07:32.792Z,8.75
2019-03-09T12:10:03.021Z,9.00
2019-03-09T12:12:33.311Z,8.96
2019-03-09T12:15:04.092Z,8.80
2019-03-09T12:17:34.379Z,8.84
2019-03-09T12:20:05.432Z,9.05
2019-03-09T12:22:35.631Z,9.29
2019-03-09T12:25:07.319Z,9.29
2019-03-09T12:27:37.508Z,9.36
2019-03-09T12:30:09.946Z,9.30
2019-03-09T12:32:40.534Z,9.32
2019-03-09T12:35:11.368Z,9.26
2019-03-09T12:37:41.964Z,9.30
2019-03-09T12:40:14.755Z,9.22
2019-03-09T12:42:45.311Z,9.21
2019-03-09T12:45:16.167Z,9.23
2019-03-09T12:47:47.559Z,9.29
2019-03-09T12:50:24.014Z,9.25
2019-03-09T12:52:54.775Z,9.10
2019-03-09T12:55:24.997Z,8.93
2019-03-09T12:57:55.779Z,8.79
2019-03-09T13:00:26.668Z,8.63
2019-03-09T13:02:57.146Z,8.53
2019-03-09T13:05:27.429Z,8.58
2019-03-09T13:07:58.230Z,8.53
2019-03-09T13:10:28.747Z,8.45
2019-03-09T13:12:58.924Z,8.44
2019-03-09T13:15:30.431Z,8.41
2019-03-09T13:18:00.650Z,8.45
2019-03-09T13:20:31.856Z,8.42
2019-03-09T13:23:02.519Z,8.38
2019-03-09T13:25:32.716Z,8.46
2019-03-09T13:28:03.226Z,8.54
2019-03-09T13:30:33.461Z,8.61
2019-03-09T13:33:03.889Z,8.58
2019-03-09T13:35:34.494Z,8.55
2019-03-09T13:38:04.707Z,8.56
2019-03-09T13:40:35.344Z,8.45
2019-03-09T13:43:05.686Z,8.34
2019-03-09T13:45:37.165Z,8.28
2019-03-09T13:48:07.699Z,8.26
2019-03-09T13:50:38.587Z,8.28
2019-03-09T13:53:09.327Z,8.21
2019-03-09T13:55:39.874Z,8.19
2019-03-09T13:58:10.836Z,8.20
2019-03-09T14:00:44.177Z,8.26
2019-03-09T14:03:14.339Z,8.26
2019-03-09T14:05:44.543Z,8.25
2019-03-09T14:08:15.222Z,8.31
2019-03-09T14:10:45.463Z,8.32
2019-03-09T14:13:17.722Z,8.28
2019-03-09T14:15:48.045Z,8.26
2019-03-09T14:18:18.755Z,8.14
2019-03-09T14:20:49.623Z,8.11
2019-03-09T14:23:22.731Z,8.04
2019-03-09T14:25:53.568Z,8.06
2019-03-09T14:28:24.249Z,8.09
2019-03-09T14:30:54.769Z,8.08
2019-03-09T14:33:25.237Z,8.02
2019-03-09T14:35:55.970Z,7.89
2019-03-09T14:38:26.251Z,7.74
2019-03-09T14:40:57.840Z,7.64
2019-03-09T14:43:28.235Z,7.49
2019-03-09T14:45:58.503Z,7.32
2019-03-09T14:48:29.131Z,7.22
2019-03-09T14:50:59.398Z,7.07
2019-03-09T14:53:30.492Z,6.87
2019-03-09T14:56:01.020Z,6.65
2019-03-09T14:58:31.567Z,6.50
2019-03-09T15:01:01.780Z,6.41
2019-03-09T15:03:32.924Z,6.19
2019-03-09T15:06:03.130Z,6.06
2019-03-09T15:08:33.314Z,5.91
2019-03-09T15:11:05.329Z,5.76
2019-03-09T15:13:35.543Z,5.66
2019-03-09T15:16:06.886Z,5.61
2019-03-09T15:18:37.898Z,5.60
2019-03-09T15:21:08.272Z,5.63
2019-03-09T15:23:38.735Z,5.63
2019-03-09T15:26:09.393Z,5.70
2019-03-09T15:28:40.024Z,5.71
2019-03-09T15:31:10.597Z,5.73
2019-03-09T15:33:41.182Z,5.73
2019-03-09T15:36:11.795Z,5.79
2019-03-09T15:38:42.060Z,5.80
2019-03-09T15:41:12.484Z,5.85
2019-03-09T15:43:43.158Z,5.95
2019-03-09T15:46:13.506Z,5.98
2019-03-09T15:48:44.314Z,6.12
2019-03-09T15:51:14.504Z,6.19
2019-03-09T15:53:45.312Z,6.21
2019-03-09T15:56:16.703Z,6.28
2019-03-09T15:58:47.520Z,6.31
2019-03-09T16:01:18.441Z,6.31
2019-03-09T16:03:49.162Z,6.28
2019-03-09T16:06:19.505Z,6.33
2019-03-09T16:08:49.929Z,6.43
2019-03-09T16:11:22.569Z,6.51
2019-03-09T16:13:53.144Z,6.51
2019-03-09T16:16:23.514Z,6.46
2019-03-09T16:18:54.523Z,6.46
2019-03-09T16:21:25.433Z,6.41
2019-03-09T16:23:58.113Z,6.35
2019-03-09T16:26:28.915Z,6.30
2019-03-09T16:28:59.769Z,6.32
2019-03-09T16:31:31.077Z,6.33
2019-03-09T16:34:02.298Z,6.34
2019-03-09T16:36:32.683Z,6.31
2019-03-09T16:39:04.608Z,6.17
2019-03-09T16:41:35.547Z,6.12
2019-03-09T16:44:06.121Z,5.89
2019-03-09T16:46:36.540Z,5.79
2019-03-09T16:49:07.341Z,4.99
2019-03-09T16:51:37.869Z,4.45
2019-03-09T16:54:08.196Z,3.85
2019-03-09T16:56:41.410Z,3.52
2019-03-09T16:59:11.800Z,3.28
2019-03-09T17:01:41.962Z,2.87
2019-03-09T17:04:12.522Z,2.69
2019-03-09T17:06:42.687Z,2.49
2019-03-09T17:09:13.244Z,2.41
2019-03-09T17:11:43.883Z,2.26
2019-03-09T17:14:15.357Z,2.28
2019-03-09T17:16:45.633Z,2.27
2019-03-09T17:19:16.143Z,2.20
2019-03-09T17:21:46.562Z,2.16
2019-03-09T17:24:17.405Z,2.20
2019-03-09T17:26:48.017Z,2.21
2019-03-09T17:29:18.448Z,2.29
2019-03-09T17:31:49.511Z,2.36
2019-03-09T17:34:21.678Z,2.39
2019-03-09T17:36:52.190Z,2.37
2019-03-09T17:39:23.026Z,2.41
2019-03-09T17:41:53.318Z,2.47
2019-03-09T17:44:23.727Z,2.53
2019-03-09T17:46:54.466Z,2.56
2019-03-09T17:49:25.825Z,2.54
2019-03-09T17:51:56.319Z,2.52
2019-03-09T17:54:27.057Z,2.51
2019-03-09T17:56:58.033Z,2.50
2019-03-09T17:59:29.249Z,2.47
2019-03-09T18:01:59.666Z,2.45
2019-03-09T18:04:30.257Z,2.42
2019-03-09T18:07:00.721Z,2.44
2019-03-09T18:09:31.590Z,2.46
2019-03-09T18:12:01.871Z,2.49
2019-03-09T18:14:32.107Z,2.49
2019-03-09T18:17:03.152Z,2.48
2019-03-09T18:19:35.225Z,2.46
2019-03-09T18:22:05.693Z,2.43
2019-03-09T18:24:36.254Z,2.42
2019-03-09T18:27:08.972Z,2.42
2019-03-09T18:29:39.701Z,2.40
2019-03-09T18:32:11.670Z,2.40
2019-03-09T18:34:42.769Z,2.41
2019-03-09T18:37:13.608Z,2.41
2019-03-09T18:39:45.593Z,2.41
2019-03-09T18:42:17.237Z,2.40
2019-03-09T18:44:48.059Z,2.41
2019-03-09T18:47:18.909Z,2.42
2019-03-09T18:49:49.609Z,2.46
2019-03-09T18:52:20.932Z,2.52
2019-03-09T18:54:52.449Z,2.62
2019-03-09T18:57:23.521Z,2.67
2019-03-09T18:59:54.630Z,2.70
2019-03-09T19:02:24.897Z,2.75
2019-03-09T19:04:56.604Z,2.78
2019-03-09T19:07:27.461Z,2.81
2019-03-09T19:09:58.213Z,2.83
2019-03-09T19:12:28.467Z,2.90
2019-03-09T19:15:02.051Z,2.97
2019-03-09T19:17:33.417Z,3.00
2019-03-09T19:20:03.676Z,3.06
2019-03-09T19:22:34.767Z,3.12
2019-03-09T19:25:05.547Z,3.20
2019-03-09T19:27:37.407Z,3.33
2019-03-09T19:30:10.095Z,3.46
2019-03-09T19:32:41.065Z,3.56
2019-03-09T19:35:12.038Z,3.64
2019-03-09T19:37:42.771Z,3.74
2019-03-09T19:40:14.577Z,3.83
2019-03-09T19:42:45.340Z,3.90
2019-03-09T19:45:15.888Z,3.95
2019-03-09T19:47:46.710Z,3.95
2019-03-09T19:50:18.335Z,3.91
2019-03-09T19:52:49.078Z,3.93
2019-03-09T19:55:20.304Z,3.95
2019-03-09T19:57:51.872Z,3.95
2019-03-09T20:00:23.039Z,3.95
2019-03-09T20:02:54.434Z,3.96
2019-03-09T20:05:26.265Z,3.97
2019-03-09T20:07:57.341Z,4.00
2019-03-09T20:10:27.751Z,4.01
2019-03-09T20:12:58.710Z,4.01
2019-03-09T20:15:32.345Z,4.00
2019-03-09T20:18:04.355Z,4.01
2019-03-09T20:20:36.717Z,4.00
2019-03-09T20:23:07.829Z,3.98
2019-03-09T20:25:40.195Z,4.00
2019-03-09T20:28:12.105Z,3.98
2019-03-09T20:30:43.072Z,3.99
2019-03-09T20:33:13.320Z,4.01
2019-03-09T20:35:44.096Z,4.03
2019-03-09T20:38:14.518Z,4.07
2019-03-09T20:40:45.339Z,4.10
2019-03-09T20:43:16.102Z,4.13
2019-03-09T20:45:46.781Z,4.17
2019-03-09T20:48:17.743Z,4.19
2019-03-09T20:50:48.480Z,4.18
2019-03-09T20:53:19.048Z,4.13
2019-03-09T20:55:49.986Z,4.09
2019-03-09T20:58:20.813Z,4.04
2019-03-09T21:00:51.451Z,4.02
2019-03-09T21:03:22.997Z,4.01
2019-03-09T21:05:53.795Z,3.99
2019-03-09T21:08:24.364Z,4.00
2019-03-09T21:11:03.325Z,4.03
2019-03-09T21:13:28.220Z,4.07
2019-03-09T21:15:58.970Z,4.08
2019-03-09T21:18:29.252Z,4.10
2019-03-09T21:20:59.778Z,4.12
2019-03-09T21:23:30.412Z,4.11
2019-03-09T21:26:01.267Z,4.12
2019-03-09T21:28:32.434Z,4.10
2019-03-09T21:31:03.452Z,4.09
2019-03-09T21:33:34.031Z,4.07
2019-03-09T21:36:04.851Z,4.07
2019-03-09T21:38:35.472Z,4.09
2019-03-09T21:41:05.751Z,4.08
2019-03-09T21:43:37.420Z,4.10
2019-03-09T21:46:08.102Z,4.13
2019-03-09T21:48:38.567Z,4.16
2019-03-09T21:51:10.054Z,4.19
2019-03-09T21:53:40.409Z,4.21
2019-03-09T21:56:11.660Z,4.23
2019-03-09T21:58:42.322Z,4.23
2019-03-09T22:01:13.313Z,4.29
2019-03-09T22:03:43.943Z,4.32
2019-03-09T22:06:15.105Z,4.36
2019-03-09T22:08:45.630Z,4.40
2019-03-09T22:11:16.362Z,4.44
2019-03-09T22:13:47.021Z,4.47
2019-03-09T22:16:17.575Z,4.48
2019-03-09T22:18:48.391Z,4.48
2019-03-09T22:21:19.713Z,4.47
2019-03-09T22:23:50.606Z,4.49
2019-03-09T22:26:21.615Z,4.50
2019-03-09T22:28:52.466Z,4.53
2019-03-09T22:31:23.033Z,4.56
2019-03-09T22:33:53.589Z,4.62
2019-03-09T22:36:24.246Z,4.67
2019-03-09T22:38:56.004Z,4.73
2019-03-09T22:41:30.085Z,4.75
2019-03-09T22:44:00.687Z,4.81
2019-03-09T22:46:31.373Z,4.89
2019-03-09T22:49:02.369Z,4.98
2019-03-09T22:51:32.975Z,5.05
2019-03-09T22:54:03.187Z,5.13
2019-03-09T22:56:33.431Z,5.26
2019-03-09T22:59:04.071Z,5.34
2019-03-09T23:01:34.434Z,5.42
2019-03-09T23:04:06.661Z,5.50
2019-03-09T23:06:37.064Z,5.59
2019-03-09T23:09:07.519Z,5.64
2019-03-09T23:11:37.711Z,5.71
2019-03-09T23:14:08.368Z,5.72
2019-03-09T23:16:38.877Z,5.75
2019-03-09T23:19:09.171Z,5.78
2019-03-09T23:21:39.968Z,5.82
2019-03-09T23:24:10.295Z,5.85
2019-03-09T23:26:40.887Z,5.88
2019-03-09T23:29:11.522Z,5.91
2019-03-09T23:31:41.836Z,5.94
2019-03-09T23:34:12.059Z,5.96
2019-03-09T23:36:42.374Z,5.98
2019-03-09T23:39:15.335Z,5.97
2019-03-09T23:41:45.794Z,5.98
2019-03-09T23:44:16.081Z,6.00
2019-03-09T23:46:46.938Z,5.99
2019-03-09T23:49:17.178Z,5.98
2019-03-09T23:51:47.691Z,5.98
2019-03-09T23:54:18.227Z,5.99
2019-03-09T23:56:48.504Z,5.99
2019-03-09T23:59:19.321Z,5.98
